Time;durP1;ratioP1;P1;durP2;ratioP2;P2;SDS_P1;SDS_P2;PMS_P1;PMS_P2;Temp;Humidity;BMP_temperature;BMP_pressure;BME280_temperature;BME280_humidity;BME280_pressure;Samples;Min_cycle;Max_cycle;Signal;HPM_P1;HPM_P2
2023/09/28 00:01:51;;;;;;;16.33;9.73;;;;;;;16.24;100.00;100643.94;6276699;23;20040;-73
2023/09/28 00:04:21;;;;;;;16.33;8.80;;;;;;;16.10;100.00;100633.38;6276852;23;20461;-73
2023/09/28 00:06:52;;;;;;;15.07;8.68;;;;;;;16.20;100.00;100645.06;6278172;23;20043;-73
2023/09/28 00:09:22;;;;;;;13.40;8.38;;;;;;;16.05;100.00;100638.03;6269137;23;20533;-72
2023/09/28 00:11:52;;;;;;;17.13;9.02;;;;;;;16.05;100.00;100635.41;6267510;23;20020;-73
2023/09/28 00:14:23;;;;;;;15.48;8.82;;;;;;;15.99;100.00;100643.66;6276200;23;20465;-73
2023/09/28 00:16:53;;;;;;;16.67;9.30;;;;;;;15.96;100.00;100645.63;6278223;23;20524;-73
2023/09/28 00:19:25;;;;;;;14.07;8.20;;;;;;;15.94;100.00;100634.31;6275043;23;20489;-73
2023/09/28 00:21:56;;;;;;;16.60;8.40;;;;;;;15.91;100.00;100637.97;6276927;23;20012;-73
2023/09/28 00:24:26;;;;;;;13.80;8.10;;;;;;;15.96;100.00;100635.06;6272211;23;20016;-73
2023/09/28 00:26:57;;;;;;;12.75;7.30;;;;;;;15.98;100.00;100633.19;6278051;23;20095;-73
2023/09/28 00:29:27;;;;;;;14.73;8.70;;;;;;;15.93;100.00;100636.13;6276462;23;20104;-72
2023/09/28 00:31:57;;;;;;;16.65;7.68;;;;;;;15.94;100.00;100631.69;6277310;23;20359;-73
2023/09/28 00:34:28;;;;;;;11.65;7.43;;;;;;;15.94;100.00;100635.19;6275691;23;20024;-72
2023/09/28 00:36:58;;;;;;;15.95;8.00;;;;;;;15.88;100.00;100640.78;6277273;23;20450;-73
2023/09/28 00:39:29;;;;;;;15.23;8.50;;;;;;;15.85;100.00;100646.22;6275799;23;20047;-73
2023/09/28 00:41:59;;;;;;;14.80;8.68;;;;;;;15.84;100.00;100647.16;6276849;23;20016;-73
2023/09/28 00:44:29;;;;;;;14.00;8.98;;;;;;;15.89;100.00;100654.81;6276610;23;20476;-73
2023/09/28 00:47:02;;;;;;;17.02;9.52;;;;;;;15.96;100.00;100657.03;6276074;23;20012;-73
2023/09/28 00:49:32;;;;;;;16.52;9.27;;;;;;;16.07;100.00;100654.63;6276816;23;20087;-73
2023/09/28 00:52:03;;;;;;;15.85;9.20;;;;;;;16.16;100.00;100646.19;6277994;23;20433;-72
2023/09/28 00:54:35;;;;;;;14.40;8.88;;;;;;;16.19;100.00;100646.00;6276773;23;20469;-73
2023/09/28 00:57:06;;;;;;;15.00;9.20;;;;;;;16.10;100.00;100641.28;6277301;23;20023;-73
2023/09/28 00:59:37;;;;;;;17.67;9.15;;;;;;;15.96;100.00;100643.84;6278276;23;20090;-73
2023/09/28 01:02:08;;;;;;;14.68;9.02;;;;;;;15.91;100.00;100652.94;6276550;23;20051;-73
2023/09/28 01:04:38;;;;;;;14.93;8.90;;;;;;;15.81;100.00;100647.34;6278608;23;20016;-73
2023/09/28 01:07:12;;;;;;;13.95;7.50;;;;;;;15.86;100.00;100655.81;6274439;23;20063;-73
2023/09/28 01:09:43;;;;;;;15.10;7.80;;;;;;;15.85;100.00;100664.66;6278684;23;20017;-73
2023/09/28 01:12:13;;;;;;;14.30;8.98;;;;;;;15.99;100.00;100661.25;6273136;23;20582;-73
2023/09/28 01:14:44;;;;;;;13.90;8.98;;;;;;;15.96;100.00;100664.94;6280341;23;20390;-73
2023/09/28 01:17:14;;;;;;;15.70;8.85;;;;;;;15.93;100.00;100662.47;6276248;23;20087;-73
2023/09/28 01:19:44;;;;;;;16.50;8.35;;;;;;;15.91;100.00;100666.94;6278827;23;20019;-73
2023/09/28 01:22:15;;;;;;;15.60;8.77;;;;;;;15.88;100.00;100656.59;6275618;23;20016;-73
2023/09/28 01:24:46;;;;;;;14.15;8.52;;;;;;;15.89;100.00;100660.91;6279640;23;20027;-73
2023/09/28 01:27:16;;;;;;;16.48;8.80;;;;;;;15.61;100.00;100654.63;6274114;23;20020;-73
2023/09/28 01:29:46;;;;;;;16.02;8.95;;;;;;;15.70;100.00;100649.69;6276071;23;20458;-73
2023/09/28 01:32:16;;;;;;;14.18;8.60;;;;;;;15.70;100.00;100654.97;6279296;23;20016;-73
2023/09/28 01:34:47;;;;;;;17.13;9.35;;;;;;;15.61;100.00;100644.97;6279059;23;20020;-73
2023/09/28 01:37:23;;;;;;;15.68;8.30;;;;;;;15.50;100.00;100647.31;6273747;23;20020;-73
2023/09/28 01:39:54;;;;;;;12.05;7.75;;;;;;;15.33;100.00;100636.84;6278348;23;20435;-73
2023/09/28 01:42:24;;;;;;;12.15;7.47;;;;;;;15.34;100.00;100641.19;6274666;23;20016;-72
2023/09/28 01:44:54;;;;;;;15.38;8.30;;;;;;;15.20;100.00;100638.38;6279832;23;20350;-73
2023/09/28 01:47:24;;;;;;;11.70;7.63;;;;;;;15.25;100.00;100644.28;6273661;23;20475;-72
2023/09/28 01:49:55;;;;;;;13.82;8.38;;;;;;;15.23;100.00;100634.75;6277470;23;20408;-73
2023/09/28 01:52:26;;;;;;;13.32;7.78;;;;;;;15.19;100.00;100633.22;6273720;23;20150;-72
2023/09/28 01:54:56;;;;;;;16.70;8.88;;;;;;;15.27;100.00;100631.00;6278392;23;20099;-73
2023/09/28 01:57:26;;;;;;;16.92;9.30;;;;;;;15.17;100.00;100622.75;6275568;23;20017;-72
2023/09/28 01:59:59;;;;;;;15.77;8.93;;;;;;;15.13;100.00;100617.72;6279433;23;20486;-73
2023/09/28 02:02:29;;;;;;;16.13;9.55;;;;;;;15.15;100.00;100618.53;6263962;23;20560;-73
2023/09/28 02:04:59;;;;;;;14.57;9.07;;;;;;;15.10;100.00;100604.75;6281386;23;20020;-73
2023/09/28 02:07:32;;;;;;;16.70;9.15;;;;;;;15.09;100.00;100611.81;6274776;23;20074;-72
2023/09/28 02:10:07;;;;;;;15.05;9.05;;;;;;;15.07;100.00;100612.81;6275541;23;20020;-73
2023/09/28 02:12:39;;;;;;;17.10;8.90;;;;;;;15.18;100.00;100600.75;6264682;23;20026;-73
2023/09/28 02:15:10;;;;;;;20.90;10.18;;;;;;;15.21;100.00;100603.22;6284677;23;20024;-73
2023/09/28 02:17:42;;;;;;;17.35;9.93;;;;;;;15.25;100.00;100602.16;6275905;23;20485;-73
2023/09/28 02:20:18;;;;;;;19.85;10.02;;;;;;;15.22;100.00;100607.56;6270866;23;20013;-73
2023/09/28 02:22:52;;;;;;;18.52;10.70;;;;;;;15.28;100.00;100611.66;6263230;23;20047;-73
2023/09/28 02:25:24;;;;;;;14.90;9.48;;;;;;;15.25;100.00;100603.91;6276028;23;20019;-73
2023/09/28 02:27:54;;;;;;;17.52;10.45;;;;;;;15.25;100.00;100604.78;6275598;23;20054;-73
2023/09/28 02:30:25;;;;;;;19.02;9.95;;;;;;;15.31;100.00;100598.34;6277713;23;20466;-72
2023/09/28 02:32:56;;;;;;;20.08;10.73;;;;;;;15.32;100.00;100592.16;6277346;23;20018;-73
2023/09/28 02:35:26;;;;;;;17.60;10.23;;;;;;;15.28;100.00;100598.47;6261814;23;20017;-72
2023/09/28 02:37:56;;;;;;;18.88;10.32;;;;;;;15.35;100.00;100581.47;6278388;23;20453;-73
2023/09/28 02:40:29;;;;;;;19.55;10.57;;;;;;;15.41;100.00;100581.97;6273957;23;20039;-72
2023/09/28 02:43:00;;;;;;;19.55;11.18;;;;;;;15.38;100.00;100574.22;6272582;23;20114;-72
2023/09/28 02:45:30;;;;;;;22.67;11.00;;;;;;;15.30;100.00;100576.44;6267308;23;20513;-73
2023/09/28 02:48:00;;;;;;;18.00;9.98;;;;;;;15.32;100.00;100579.84;6274547;23;20108;-73
2023/09/28 02:50:30;;;;;;;23.73;11.65;;;;;;;15.15;100.00;100593.03;6277148;23;20369;-73
2023/09/28 02:53:01;;;;;;;19.67;10.40;;;;;;;15.26;100.00;100605.63;6273080;23;20198;-72
2023/09/28 02:55:32;;;;;;;15.52;9.80;;;;;;;15.28;100.00;100607.25;6269449;23;20016;-73
2023/09/28 02:58:04;;;;;;;22.85;11.15;;;;;;;15.29;100.00;100611.63;6280654;23;20039;-73
2023/09/28 03:00:35;;;;;;;19.67;11.23;;;;;;;15.34;100.00;100624.53;6278437;23;20028;-73
2023/09/28 03:03:06;;;;;;;21.13;10.73;;;;;;;15.36;100.00;100623.50;6271448;23;20012;-73
2023/09/28 03:05:39;;;;;;;20.63;11.90;;;;;;;15.43;100.00;100629.28;6276111;23;20054;-73
2023/09/28 03:08:14;;;;;;;20.88;12.10;;;;;;;15.46;100.00;100619.44;6274132;23;20087;-73
2023/09/28 03:10:44;;;;;;;18.92;10.95;;;;;;;15.50;100.00;100626.25;6277286;23;20027;-73
2023/09/28 03:13:15;;;;;;;20.10;11.63;;;;;;;15.42;100.00;100636.34;6273827;23;20012;-73
2023/09/28 03:15:46;;;;;;;18.90;11.60;;;;;;;15.33;100.00;100634.22;6276342;23;20035;-73
2023/09/28 03:18:16;;;;;;;15.50;10.90;;;;;;;15.36;100.00;100626.13;6274530;23;20017;-72
2023/09/28 03:20:48;;;;;;;19.30;10.65;;;;;;;15.40;100.00;100629.47;6274085;23;20229;-73
2023/09/28 03:23:18;;;;;;;20.05;11.63;;;;;;;15.33;100.00;100630.75;6269504;23;20024;-72
2023/09/28 03:25:49;;;;;;;18.33;10.32;;;;;;;15.32;100.00;100627.25;6277243;23;20453;-73
2023/09/28 03:28:19;;;;;;;19.52;10.55;;;;;;;15.28;100.00;100628.31;6274402;23;20020;-73
2023/09/28 03:30:49;;;;;;;19.58;11.82;;;;;;;15.34;100.00;100629.81;6280277;23;20023;-73
2023/09/28 03:33:20;;;;;;;21.83;11.10;;;;;;;15.16;100.00;100633.41;6273447;23;20222;-73
2023/09/28 03:35:50;;;;;;;17.00;10.82;;;;;;;15.06;100.00;100637.44;6277995;23;20078;-73
2023/09/28 03:38:21;;;;;;;15.95;10.40;;;;;;;15.04;100.00;100634.88;6274317;23;20013;-73
2023/09/28 03:40:53;;;;;;;16.65;10.13;;;;;;;15.05;100.00;100639.19;6275734;23;20397;-73
2023/09/28 03:43:24;;;;;;;19.38;10.63;;;;;;;15.08;100.00;100643.47;6269219;23;20062;-73
2023/09/28 03:45:54;;;;;;;20.63;12.90;;;;;;;15.12;100.00;100640.59;6277151;23;20085;-73
2023/09/28 03:48:25;;;;;;;24.85;13.18;;;;;;;15.23;100.00;100645.28;6273111;23;20047;-73
2023/09/28 03:50:56;;;;;;;20.55;12.63;;;;;;;15.15;100.00;100635.16;6277286;23;20037;-73
2023/09/28 03:53:26;;;;;;;24.00;14.35;;;;;;;15.13;100.00;100637.03;6274522;23;20359;-72
2023/09/28 03:55:57;;;;;;;20.67;13.48;;;;;;;15.19;100.00;100623.53;6276155;23;20074;-73
2023/09/28 03:58:27;;;;;;;22.60;13.10;;;;;;;15.16;100.00;100625.50;6276765;23;20021;-72
2023/09/28 04:00:58;;;;;;;23.33;14.35;;;;;;;14.99;100.00;100631.63;6277927;23;20410;-73
2023/09/28 04:03:28;;;;;;;21.80;13.73;;;;;;;14.99;100.00;100629.00;6278266;23;20065;-73
2023/09/28 04:05:58;;;;;;;26.63;14.75;;;;;;;14.89;100.00;100635.69;6276638;23;20026;-73
2023/09/28 04:08:29;;;;;;;21.83;13.85;;;;;;;14.92;100.00;100632.91;6271782;23;20248;-73
2023/09/28 04:10:59;;;;;;;25.42;14.02;;;;;;;14.98;100.00;100624.66;6272622;23;20500;-73
2023/09/28 04:13:30;;;;;;;25.30;14.55;;;;;;;14.88;100.00;100619.97;6267019;23;20078;-73
2023/09/28 04:16:00;;;;;;;29.05;15.57;;;;;;;14.95;100.00;100618.72;6277429;23;20015;-73
2023/09/28 04:18:30;;;;;;;25.80;15.32;;;;;;;14.93;100.00;100621.44;6271339;23;20024;-73
2023/09/28 04:21:01;;;;;;;23.25;13.82;;;;;;;14.96;100.00;100616.00;6274383;23;20241;-73
2023/09/28 04:23:31;;;;;;;25.63;14.15;;;;;;;14.93;100.00;100612.69;6270293;23;20024;-73
2023/09/28 04:26:01;;;;;;;25.27;15.18;;;;;;;14.94;100.00;100622.28;6271236;23;20027;-73
2023/09/28 04:28:32;;;;;;;26.38;14.73;;;;;;;14.92;100.00;100606.59;6275036;23;20019;-73
2023/09/28 04:31:02;;;;;;;23.92;14.60;;;;;;;14.99;100.00;100602.69;6275216;23;20028;-73
2023/09/28 04:33:32;;;;;;;23.20;13.43;;;;;;;14.93;100.00;100608.28;6271629;23;20413;-73
2023/09/28 04:36:03;;;;;;;23.60;13.38;;;;;;;14.88;100.00;100612.91;6260626;23;20016;-73
2023/09/28 04:38:33;;;;;;;24.45;13.43;;;;;;;14.79;100.00;100609.91;6269353;23;20021;-73
2023/09/28 04:41:03;;;;;;;21.85;12.30;;;;;;;14.64;100.00;100605.47;6272610;23;20015;-73
2023/09/28 04:43:34;;;;;;;27.40;13.10;;;;;;;14.63;100.00;100609.00;6271005;23;20040;-73
2023/09/28 04:46:05;;;;;;;20.15;13.25;;;;;;;14.57;100.00;100616.38;6274168;23;20377;-72
2023/09/28 04:48:35;;;;;;;27.60;12.65;;;;;;;14.69;100.00;100615.72;6272137;23;20020;-73
2023/09/28 04:51:06;;;;;;;19.15;11.43;;;;;;;14.71;100.00;100622.63;6274376;23;20107;-73
2023/09/28 04:53:36;;;;;;;21.58;13.18;;;;;;;14.68;100.00;100619.28;6274787;23;20021;-73
2023/09/28 04:56:11;;;;;;;24.42;12.73;;;;;;;14.58;100.00;100611.03;6258147;23;20021;-72
2023/09/28 04:58:41;;;;;;;24.00;13.80;;;;;;;14.69;100.00;100615.72;6265975;23;20020;-73
2023/09/28 05:01:12;;;;;;;24.65;14.05;;;;;;;14.76;100.00;100623.22;6275868;23;20394;-73
2023/09/28 05:03:42;;;;;;;21.73;13.95;;;;;;;14.71;100.00;100629.66;6269014;23;20099;-73
2023/09/28 05:06:12;;;;;;;20.30;11.70;;;;;;;14.70;100.00;100631.44;6256747;23;20013;-73
2023/09/28 05:08:43;;;;;;;18.25;12.20;;;;;;;14.62;100.00;100640.66;6270716;23;21013;-73
2023/09/28 05:11:13;;;;;;;22.15;12.55;;;;;;;14.54;100.00;100637.56;6264865;23;20025;-73
2023/09/28 05:13:43;;;;;;;20.95;12.38;;;;;;;14.51;100.00;100649.09;6273454;23;20024;-73
2023/09/28 05:16:13;;;;;;;24.92;12.40;;;;;;;14.48;100.00;100651.03;6271806;23;20016;-73
2023/09/28 05:18:44;;;;;;;21.98;12.43;;;;;;;14.56;100.00;100654.16;6278843;23;20039;-73
2023/09/28 05:21:14;;;;;;;29.02;12.55;;;;;;;14.60;100.00;100661.78;6271167;23;20025;-73
2023/09/28 05:23:44;;;;;;;19.67;12.43;;;;;;;14.68;100.00;100666.66;6275905;23;20024;-73
2023/09/28 05:26:15;;;;;;;21.05;11.10;;;;;;;14.70;100.00;100667.41;6273009;23;20020;-73
2023/09/28 05:28:45;;;;;;;22.48;12.25;;;;;;;14.70;100.00;100667.41;6276383;23;20099;-73
2023/09/28 05:31:16;;;;;;;20.27;12.05;;;;;;;14.69;100.00;100670.97;6276160;23;20020;-73
2023/09/28 05:33:46;;;;;;;20.58;12.30;;;;;;;14.74;100.00;100669.00;6268539;23;20419;-73
2023/09/28 05:36:16;;;;;;;25.77;14.48;;;;;;;15.10;100.00;100667.91;6273436;23;20015;-73
2023/09/28 05:38:47;;;;;;;27.05;14.85;;;;;;;15.17;100.00;100669.31;6275378;23;20027;-73
2023/09/28 05:41:17;;;;;;;26.55;14.93;;;;;;;15.17;100.00;100672.78;6276661;23;20048;-73
2023/09/28 05:43:47;;;;;;;26.75;14.68;;;;;;;15.25;100.00;100667.97;6278270;23;20050;-73
2023/09/28 05:46:17;;;;;;;25.45;15.45;;;;;;;15.31;100.00;100672.06;6274567;23;20359;-72
2023/09/28 05:48:48;;;;;;;24.88;14.20;;;;;;;15.33;100.00;100671.06;6277132;23;20016;-73
2023/09/28 05:51:18;;;;;;;28.83;14.63;;;;;;;15.28;100.00;100667.81;6274971;23;20016;-73
2023/09/28 05:53:51;;;;;;;24.60;13.65;;;;;;;15.41;100.00;100678.56;6277079;23;20043;-73
2023/09/28 05:56:21;;;;;;;23.48;12.55;;;;;;;15.48;100.00;100667.63;6271567;23;20012;-73
2023/09/28 05:58:52;;;;;;;25.70;14.63;;;;;;;15.38;100.00;100666.41;6277100;23;20097;-73
2023/09/28 06:01:22;;;;;;;24.10;13.88;;;;;;;15.46;100.00;100680.03;6274881;23;20437;-72
2023/09/28 06:03:52;;;;;;;32.97;15.10;;;;;;;15.42;100.00;100678.50;6277933;23;20074;-73
2023/09/28 06:06:24;;;;;;;24.17;15.57;;;;;;;15.52;100.00;100682.31;6274296;23;20074;-72
2023/09/28 06:08:54;;;;;;;23.65;14.88;;;;;;;15.71;100.00;100677.75;6274202;23;20023;-73
2023/09/28 06:11:25;;;;;;;29.42;15.90;;;;;;;15.96;100.00;100683.38;6271264;23;20028;-72
2023/09/28 06:13:55;;;;;;;33.05;17.15;;;;;;;15.98;100.00;100689.41;6277381;23;20009;-73
2023/09/28 06:16:25;;;;;;;26.40;15.32;;;;;;;15.98;100.00;100688.56;6274002;23;20013;-72
2023/09/28 06:18:56;;;;;;;29.90;15.35;;;;;;;16.08;100.00;100701.13;6276658;23;20373;-73
2023/09/28 06:21:26;;;;;;;27.88;15.52;;;;;;;16.13;100.00;100709.66;6270884;23;20020;-72
2023/09/28 06:23:57;;;;;;;27.15;15.88;;;;;;;16.21;100.00;100703.97;6273514;23;20091;-73
2023/09/28 06:26:27;;;;;;;25.73;15.77;;;;;;;16.35;100.00;100702.25;6269661;23;20644;-73
2023/09/28 06:28:58;;;;;;;25.77;15.77;;;;;;;16.24;100.00;100709.88;6276549;23;20062;-73
2023/09/28 06:31:28;;;;;;;25.30;15.05;;;;;;;16.35;100.00;100706.72;6273117;23;20026;-73
2023/09/28 06:33:59;;;;;;;26.10;15.02;;;;;;;16.37;100.00;100710.09;6273198;23;20062;-73
2023/09/28 06:36:29;;;;;;;24.05;13.60;;;;;;;16.42;100.00;100714.16;6266322;23;20070;-73
2023/09/28 06:38:59;;;;;;;20.33;12.32;;;;;;;16.53;100.00;100717.03;6273436;23;20016;-73
2023/09/28 06:41:30;;;;;;;24.60;14.23;;;;;;;16.60;100.00;100707.84;6271906;23;20074;-73
2023/09/28 06:44:00;;;;;;;23.63;14.57;;;;;;;16.70;100.00;100711.63;6272615;23;20045;-73
2023/09/28 06:46:31;;;;;;;22.50;12.80;;;;;;;16.83;100.00;100721.38;6270413;23;20456;-73
2023/09/28 06:49:01;;;;;;;23.45;13.75;;;;;;;16.91;100.00;100728.84;6296463;23;20019;-73
2023/09/28 06:51:32;;;;;;;20.98;13.82;;;;;;;17.10;100.00;100729.44;6271818;23;20020;-73
2023/09/28 06:54:03;;;;;;;24.52;13.60;;;;;;;17.22;100.00;100736.66;6275420;23;20525;-73
2023/09/28 06:56:35;;;;;;;23.15;13.27;;;;;;;17.36;100.00;100737.56;6266976;23;20051;-73
2023/09/28 06:59:05;;;;;;;26.92;14.63;;;;;;;17.62;100.00;100738.63;6272306;23;20492;-73
2023/09/28 07:01:35;;;;;;;22.98;14.07;;;;;;;17.71;100.00;100733.63;6272742;23;20135;-73
2023/09/28 07:04:06;;;;;;;25.38;13.55;;;;;;;17.88;100.00;100738.72;6272419;23;20100;-72
2023/09/28 07:06:37;;;;;;;24.23;13.60;;;;;;;17.87;100.00;100739.66;6271535;23;20371;-73
2023/09/28 07:09:08;;;;;;;22.70;13.63;;;;;;;18.18;100.00;100747.31;6272325;23;20028;-74
2023/09/28 07:11:38;;;;;;;22.92;13.57;;;;;;;18.08;100.00;100754.16;6270828;23;20021;-73
2023/09/28 07:14:09;;;;;;;19.80;13.15;;;;;;;17.99;100.00;100760.03;6273030;23;20012;-73
2023/09/28 07:16:39;;;;;;;17.90;12.38;;;;;;;17.94;100.00;100761.25;6270814;23;20008;-73
2023/09/28 07:19:09;;;;;;;19.48;13.00;;;;;;;17.96;100.00;100760.22;6273323;23;20020;-73
2023/09/28 07:21:40;;;;;;;19.80;12.35;;;;;;;17.85;100.00;100767.97;6262450;23;20090;-73
2023/09/28 07:24:10;;;;;;;25.70;12.98;;;;;;;17.81;100.00;100774.38;6272534;23;20024;-71
2023/09/28 07:26:41;;;;;;;21.52;12.43;;;;;;;17.80;100.00;100774.50;6271018;23;20051;-73
2023/09/28 07:29:12;;;;;;;24.10;11.85;;;;;;;17.82;100.00;100767.31;6273293;23;20012;-73
2023/09/28 07:31:43;;;;;;;21.52;12.00;;;;;;;17.82;100.00;100770.81;6274912;23;20013;-74
2023/09/28 07:34:13;;;;;;;19.27;12.43;;;;;;;17.86;100.00;100774.13;6272193;23;20730;-73
2023/09/28 07:36:45;;;;;;;18.95;12.18;;;;;;;17.91;100.00;100774.66;6273738;23;20275;-73
2023/09/28 07:39:15;;;;;;;19.75;11.93;;;;;;;17.87;100.00;100775.81;6270534;23;20023;-73
2023/09/28 07:41:45;;;;;;;15.75;11.23;;;;;;;17.93;100.00;100778.94;6272342;23;20400;-73
2023/09/28 07:44:16;;;;;;;17.98;10.93;;;;;;;17.95;100.00;100776.16;6272342;23;20211;-73
2023/09/28 07:46:47;;;;;;;19.50;10.88;;;;;;;18.06;100.00;100771.06;6272489;23;20044;-73
2023/09/28 07:49:17;;;;;;;14.75;9.20;;;;;;;18.14;100.00;100772.28;6271708;23;20020;-74
2023/09/28 07:51:47;;;;;;;18.02;11.77;;;;;;;18.26;100.00;100778.59;6276552;23;20031;-74
2023/09/28 07:54:18;;;;;;;22.70;12.40;;;;;;;18.33;100.00;100774.66;6270821;23;20048;-73
2023/09/28 07:56:48;;;;;;;17.88;11.38;;;;;;;18.42;100.00;100780.22;6274094;23;20035;-74
2023/09/28 07:59:19;;;;;;;17.55;10.25;;;;;;;18.53;100.00;100783.00;6272718;23;20272;-73
2023/09/28 08:01:49;;;;;;;14.70;10.50;;;;;;;18.59;100.00;100798.50;6275978;23;20027;-73
2023/09/28 08:04:21;;;;;;;14.63;9.75;;;;;;;18.70;100.00;100790.69;6270397;23;20541;-74
2023/09/28 08:06:52;;;;;;;14.35;9.60;;;;;;;18.84;100.00;100790.63;6272859;23;20066;-73
2023/09/28 08:09:23;;;;;;;23.48;9.57;;;;;;;18.90;100.00;100798.19;6273114;23;20036;-74
2023/09/28 08:11:55;;;;;;;15.50;9.65;;;;;;;18.93;100.00;100798.81;6275517;23;20020;-74
2023/09/28 08:14:25;;;;;;;14.23;9.05;;;;;;;19.09;100.00;100790.72;6271875;23;20013;-73
2023/09/28 08:16:56;;;;;;;14.68;9.15;;;;;;;19.02;100.00;100790.28;6276390;23;20016;-74
2023/09/28 08:19:26;;;;;;;14.30;8.05;;;;;;;19.00;100.00;100791.31;6271292;23;20474;-74
2023/09/28 08:21:57;;;;;;;11.80;6.93;;;;;;;19.10;100.00;100784.47;6274882;23;20019;-73
2023/09/28 08:24:28;;;;;;;11.43;7.63;;;;;;;19.20;100.00;100790.88;6275157;23;20024;-73
2023/09/28 08:26:58;;;;;;;11.85;7.45;;;;;;;19.31;100.00;100794.47;6274658;23;20044;-74
2023/09/28 08:29:29;;;;;;;10.57;7.28;;;;;;;19.48;100.00;100790.69;6273010;23;20012;-74
2023/09/28 08:31:59;;;;;;;10.85;6.90;;;;;;;19.56;100.00;100794.53;6275935;23;20012;-74
2023/09/28 08:34:29;;;;;;;7.65;5.55;;;;;;;21.05;100.00;100787.19;6273077;23;20017;-73
2023/09/28 08:37:03;;;;;;;10.60;5.10;;;;;;;22.79;100.00;100785.56;6274808;23;20024;-74
2023/09/28 08:39:37;;;;;;;6.85;3.95;;;;;;;23.91;97.70;100792.88;6271625;23;20043;-74
2023/09/28 08:42:15;;;;;;;8.20;3.90;;;;;;;24.00;88.15;100800.94;6274562;23;20095;-74
2023/09/28 08:44:47;;;;;;;7.28;3.22;;;;;;;24.72;84.94;100797.09;6277082;23;20070;-74
2023/09/28 08:47:17;;;;;;;5.88;2.70;;;;;;;25.14;82.51;100806.56;6274630;23;20311;-74
2023/09/28 08:49:50;;;;;;;5.68;3.25;;;;;;;24.44;84.28;100816.56;6275197;23;20083;-74
2023/09/28 08:52:21;;;;;;;6.32;3.50;;;;;;;25.12;82.40;100819.25;6272038;23;20521;-74
2023/09/28 08:54:52;;;;;;;7.03;3.40;;;;;;;26.07;77.08;100806.59;6277063;23;20035;-74
2023/09/28 08:57:25;;;;;;;5.68;3.30;;;;;;;26.82;75.62;100816.09;6273157;23;20091;-74
2023/09/28 08:59:57;;;;;;;6.07;3.13;;;;;;;26.32;75.63;100805.06;6276520;23;20016;-74
2023/09/28 09:02:28;;;;;;;7.70;3.65;;;;;;;26.34;77.63;100814.63;6278734;23;20012;-74
2023/09/28 09:04:58;;;;;;;7.22;3.53;;;;;;;25.88;77.82;100816.50;6275721;23;20044;-74
2023/09/28 09:07:29;;;;;;;6.00;3.25;;;;;;;25.38;79.09;100817.72;6278680;23;20454;-74
2023/09/28 09:10:00;;;;;;;7.57;3.20;;;;;;;25.36;78.09;100819.69;6280963;23;20059;-74
2023/09/28 09:12:32;;;;;;;5.97;3.13;;;;;;;25.10;79.14;100829.22;6272302;23;20394;-73
2023/09/28 09:15:04;;;;;;;5.75;2.75;;;;;;;24.73;79.83;100814.81;6279900;23;20468;-74
2023/09/28 09:17:36;;;;;;;7.63;2.90;;;;;;;24.54;79.99;100821.97;6270561;23;20013;-73
2023/09/28 09:20:08;;;;;;;6.45;2.90;;;;;;;24.86;78.14;100824.28;6281486;23;20078;-74
2023/09/28 09:22:39;;;;;;;5.70;2.70;;;;;;;24.51;80.64;100836.41;6270751;23;20385;-74
2023/09/28 09:25:09;;;;;;;5.82;2.50;;;;;;;24.68;80.44;100827.78;6282515;23;20020;-74
2023/09/28 09:27:39;;;;;;;6.35;2.38;;;;;;;24.83;78.69;100831.75;6272726;23;20282;-74
2023/09/28 09:30:14;;;;;;;7.70;2.40;;;;;;;24.57;78.67;100824.38;6279501;23;20199;-73
2023/09/28 09:32:47;;;;;;;3.75;2.33;;;;;;;24.42;80.12;100829.19;6274639;23;20607;-73
2023/09/28 09:35:21;;;;;;;5.38;2.33;;;;;;;24.22;78.38;100840.81;6272754;23;20046;-73
2023/09/28 09:37:53;;;;;;;12.15;2.85;;;;;;;24.33;78.67;100837.19;6279470;23;20012;-73
2023/09/28 09:40:25;;;;;;;6.90;2.28;;;;;;;24.42;79.38;100839.06;6278029;23;20027;-73
2023/09/28 09:43:04;;;;;;;5.03;2.55;;;;;;;24.05;79.32;100836.09;6269540;23;20096;-74
2023/09/28 09:45:38;;;;;;;5.63;2.30;;;;;;;24.33;78.04;100842.53;6263349;23;20051;-73
2023/09/28 09:48:11;;;;;;;4.68;2.47;;;;;;;24.09;80.14;100842.88;6260232;23;20392;-73
2023/09/28 09:50:43;;;;;;;5.43;2.92;;;;;;;24.33;80.35;100846.06;6264928;23;20025;-73
2023/09/28 09:53:16;;;;;;;4.97;2.30;;;;;;;24.19;79.62;100859.78;6282154;23;20017;-73
2023/09/28 09:55:50;;;;;;;4.43;2.40;;;;;;;24.35;79.17;100856.63;6268201;23;20043;-73
2023/09/28 09:58:23;;;;;;;4.03;2.10;;;;;;;24.43;78.28;100854.97;6268257;23;20509;-73
2023/09/28 10:00:57;;;;;;;4.47;2.40;;;;;;;24.45;79.65;100862.84;6272729;23;20028;-73
2023/09/28 10:03:29;;;;;;;6.47;2.60;;;;;;;24.25;80.94;100853.06;6275131;23;20020;-73
2023/09/28 10:06:01;;;;;;;4.45;2.40;;;;;;;24.41;80.61;100848.91;6272815;23;20501;-73
2023/09/28 10:08:32;;;;;;;4.53;2.20;;;;;;;24.43;80.71;100852.31;6259498;23;20013;-73
2023/09/28 10:11:04;;;;;;;5.80;2.50;;;;;;;24.19;82.14;100840.25;6275369;23;20017;-74
2023/09/28 10:13:36;;;;;;;4.28;2.10;;;;;;;24.38;84.18;100837.66;6276539;23;20494;-73
2023/09/28 10:16:09;;;;;;;4.38;2.53;;;;;;;24.24;82.74;100840.69;6281997;23;20028;-73
2023/09/28 10:18:43;;;;;;;4.00;2.40;;;;;;;24.24;81.69;100836.16;6275756;23;20363;-73
2023/09/28 10:21:14;;;;;;;4.03;2.20;;;;;;;24.33;82.64;100835.38;6278774;23;20084;-73
2023/09/28 10:23:47;;;;;;;6.32;2.45;;;;;;;24.35;80.58;100822.72;6275278;23;20023;-73
2023/09/28 10:26:18;;;;;;;8.68;2.63;;;;;;;24.32;81.72;100820.31;6278086;23;20040;-73
2023/09/28 10:29:09;;;;;;;4.25;2.40;;;;;;;24.15;84.14;100828.97;6281987;23;20095;-73
2023/09/28 10:31:42;;;;;;;5.82;2.70;;;;;;;24.22;84.18;100839.97;6278135;23;20028;-73
2023/09/28 10:34:20;;;;;;;5.80;2.40;;;;;;;24.10;84.38;100844.56;6277797;23;20016;-73
2023/09/28 10:37:10;;;;;;;5.90;2.65;;;;;;;24.05;84.29;100844.09;6277805;23;20015;-73
2023/09/28 10:39:41;;;;;;;5.38;2.58;;;;;;;23.97;86.22;100841.25;6265405;23;20413;-73
2023/09/28 10:42:14;;;;;;;4.85;2.63;;;;;;;23.96;85.29;100833.38;6275162;23;20020;-73
2023/09/28 10:44:46;;;;;;;5.28;2.58;;;;;;;23.93;84.06;100831.84;6272884;23;20023;-73
2023/09/28 10:47:16;;;;;;;5.15;2.63;;;;;;;24.11;85.16;100840.06;6267699;23;20419;-73
2023/09/28 10:49:53;;;;;;;5.05;2.60;;;;;;;24.10;81.70;100847.25;6282244;23;20112;-73
2023/09/28 10:52:23;;;;;;;3.47;2.35;;;;;;;24.00;82.75;100838.31;6273894;23;20435;-73
2023/09/28 10:54:54;;;;;;;5.57;2.35;;;;;;;24.02;82.48;100841.72;6282989;23;20094;-74
2023/09/28 10:57:31;;;;;;;5.65;2.58;;;;;;;24.07;82.52;100838.63;6274745;23;20381;-73
2023/09/28 11:00:04;;;;;;;4.82;2.40;;;;;;;23.99;83.63;100838.44;6268135;23;20017;-73
2023/09/28 11:02:36;;;;;;;6.85;2.33;;;;;;;23.94;83.41;100846.88;6266435;23;20382;-73
2023/09/28 11:05:08;;;;;;;5.72;2.47;;;;;;;24.02;83.98;100839.03;6287280;23;20497;-73
2023/09/28 11:07:38;;;;;;;5.80;2.78;;;;;;;23.96;84.67;100838.72;6281451;23;20016;-72
2023/09/28 11:10:09;;;;;;;7.03;2.70;;;;;;;24.05;83.00;100849.44;6288843;23;20125;-73
2023/09/28 11:12:41;;;;;;;4.38;2.42;;;;;;;23.86;82.56;100846.69;6281614;23;20515;-73
2023/09/28 11:15:14;;;;;;;5.88;2.67;;;;;;;23.87;82.60;100847.53;6281902;23;20431;-73
2023/09/28 11:17:47;;;;;;;5.13;2.45;;;;;;;23.99;83.53;100843.78;6279375;23;20044;-74
2023/09/28 11:20:19;;;;;;;4.43;2.30;;;;;;;23.90;83.19;100845.44;6276039;23;20489;-73
2023/09/28 11:22:56;;;;;;;9.48;2.63;;;;;;;23.99;82.55;100841.13;6285394;23;20488;-73
2023/09/28 11:25:27;;;;;;;7.30;2.60;;;;;;;23.85;82.92;100842.31;6287467;23;20077;-73
2023/09/28 11:27:58;;;;;;;8.27;3.03;;;;;;;23.86;82.85;100838.66;6277655;23;20253;-73